Rock Falls, Wisconsin
Current Conditions -  °F | °C
As of 10:56 AM on Wednesday 26 Nov 2014 (Local Time) from KEAU Reporting Station
Overcast Overcast  
Wind Chill: 25°   Ceiling: 5500
Heat Index: 25°   Visibility: 10mi
Dew Point: 17°   Wind: 3mph
Humidity: 72%   Direction: 40°NE
Pressure: 30.16"   Gusts: NA
Location:  44.72°N, 91.69°W
Report Text: KEAU 261656Z 04003KT 10SM OVC055 M04/M08 A3016 RMK AO2 SLP227 T10391083
Loading
Personal Weather Stations






























Interactive Weather Map New forecast layout! Learn more

10-Day Weather Forecast

Advertisements
Track Severe Weather on mobile